createdAt,value
2019-04-05T00:02:10.993Z,52.13
2019-04-05T00:04:44.363Z,53.03
2019-04-05T00:07:17.706Z,51.13
2019-04-05T00:09:51.112Z,45.53
2019-04-05T00:12:24.501Z,51.70
2019-04-05T00:14:57.848Z,49.30
2019-04-05T00:17:31.283Z,57.87
2019-04-05T00:20:07.588Z,56.40
2019-04-05T00:22:40.980Z,51.23
2019-04-05T00:25:14.406Z,48.93
2019-04-05T00:27:47.745Z,50.17
2019-04-05T00:30:21.236Z,56.33
2019-04-05T00:32:54.618Z,52.47
2019-04-05T00:35:28.045Z,46.07
2019-04-05T00:38:01.428Z,48.67
2019-04-05T00:40:34.797Z,56.77
2019-04-05T00:43:08.119Z,48.87
2019-04-05T00:45:41.487Z,51.07
2019-04-05T00:48:15.807Z,59.27
2019-04-05T00:50:49.255Z,47.00
2019-04-05T00:53:22.665Z,48.67
2019-04-05T00:55:56.022Z,44.03
2019-04-05T00:58:29.431Z,49.37
2019-04-05T01:01:02.887Z,43.73
2019-04-05T01:03:36.246Z,46.10
2019-04-05T01:06:09.603Z,48.63
2019-04-05T01:08:43.142Z,43.10
2019-04-05T01:11:16.615Z,47.27
2019-04-05T01:13:50.507Z,41.90
2019-04-05T01:16:23.941Z,44.17
2019-04-05T01:18:57.280Z,39.73
2019-04-05T01:21:33.832Z,41.97
2019-04-05T01:24:07.935Z,35.40
2019-04-05T01:26:42.825Z,64.63
2019-04-05T01:29:16.258Z,48.77
2019-04-05T01:31:49.684Z,44.33
2019-04-05T01:34:23.003Z,53.57
2019-04-05T01:36:56.428Z,45.03
2019-04-05T01:39:29.765Z,40.30
2019-04-05T01:42:03.198Z,58.03
2019-04-05T01:44:36.635Z,59.53
2019-04-05T01:47:10.069Z,44.60
2019-04-05T01:49:43.458Z,45.50
2019-04-05T01:52:16.899Z,45.20
2019-04-05T01:54:50.240Z,44.93
2019-04-05T01:57:23.645Z,45.70
2019-04-05T01:59:57.014Z,46.83
2019-04-05T02:02:30.389Z,45.77
2019-04-05T02:05:06.055Z,49.50
2019-04-05T02:07:39.593Z,50.63
2019-04-05T02:10:13.313Z,48.53
2019-04-05T02:12:46.803Z,42.57
2019-04-05T02:15:28.449Z,48.20
2019-04-05T02:18:01.914Z,46.73
2019-04-05T02:20:35.375Z,43.47
2019-04-05T02:23:08.770Z,45.03
2019-04-05T02:25:42.193Z,46.00
2019-04-05T02:28:15.672Z,46.07
2019-04-05T02:30:49.095Z,49.60
2019-04-05T02:33:22.484Z,48.50
2019-04-05T02:35:55.944Z,42.40
2019-04-05T02:38:29.275Z,45.73
2019-04-05T02:41:03.491Z,49.87
2019-04-05T02:43:38.589Z,48.93
2019-04-05T02:46:23.625Z,44.93
2019-04-05T02:48:47.941Z,58.70
2019-04-05T02:51:23.100Z,52.07
2019-04-05T02:53:57.889Z,64.73
2019-04-05T02:56:31.666Z,57.03
2019-04-05T02:59:05.912Z,49.63
2019-04-05T03:01:39.383Z,54.40
2019-04-05T03:04:13.265Z,52.90
2019-04-05T03:06:47.043Z,56.00
2019-04-05T03:09:20.872Z,53.23
2019-04-05T03:11:54.870Z,54.43
2019-04-05T03:14:28.587Z,59.60
2019-04-05T03:17:02.530Z,52.97
2019-04-05T03:19:37.644Z,64.30
2019-04-05T03:22:12.561Z,60.90
2019-04-05T03:24:46.664Z,58.13
2019-04-05T03:27:22.508Z,52.53
2019-04-05T03:29:56.523Z,67.17
2019-04-05T03:32:29.984Z,59.53
2019-04-05T03:35:03.852Z,49.80
2019-04-05T03:37:37.294Z,57.27
2019-04-05T03:40:10.726Z,53.77
2019-04-05T03:42:44.237Z,57.60
2019-04-05T03:45:17.555Z,53.03
2019-04-05T03:47:51.012Z,57.83
2019-04-05T03:50:24.432Z,57.47
2019-04-05T03:52:58.076Z,55.90
2019-04-05T03:55:31.665Z,53.20
2019-04-05T03:58:05.420Z,54.27
2019-04-05T04:00:39.242Z,60.27
2019-04-05T04:03:12.841Z,62.63
2019-04-05T04:05:46.235Z,57.73
2019-04-05T04:08:23.277Z,57.77
2019-04-05T04:10:55.584Z,54.93
2019-04-05T04:13:29.295Z,52.73
2019-04-05T04:16:02.706Z,51.50
2019-04-05T04:18:36.439Z,46.10
2019-04-05T04:21:15.878Z,52.30
2019-04-05T04:23:49.310Z,50.17
2019-04-05T04:26:22.776Z,49.33
2019-04-05T04:28:56.417Z,49.00
2019-04-05T04:31:29.917Z,55.73
2019-04-05T04:34:03.275Z,54.30
2019-04-05T04:36:36.597Z,52.33
2019-04-05T04:39:10.033Z,51.87
2019-04-05T04:41:43.802Z,52.63
2019-04-05T04:44:18.090Z,44.33
2019-04-05T04:46:51.807Z,53.87
2019-04-05T04:49:25.242Z,48.07
2019-04-05T04:51:58.814Z,56.83
2019-04-05T04:54:32.260Z,51.17
2019-04-05T04:57:05.982Z,46.53
2019-04-05T04:59:39.424Z,53.90
2019-04-05T05:02:13.026Z,48.37
2019-04-05T05:04:46.467Z,54.20
2019-04-05T05:07:19.852Z,54.00
2019-04-05T05:09:53.327Z,48.87
2019-04-05T05:12:26.797Z,50.83
2019-04-05T05:15:00.225Z,51.33
2019-04-05T05:17:38.836Z,49.23
2019-04-05T05:20:09.848Z,54.13
2019-04-05T05:22:43.365Z,55.53
2019-04-05T05:25:17.719Z,53.27
2019-04-05T05:27:51.259Z,53.00
2019-04-05T05:30:24.966Z,51.43
2019-04-05T05:32:58.829Z,56.67
2019-04-05T05:35:32.219Z,49.13
2019-04-05T05:38:05.959Z,54.20
2019-04-05T05:40:39.364Z,63.57
2019-04-05T05:43:12.785Z,51.87
2019-04-05T05:45:46.496Z,56.77
2019-04-05T05:48:19.930Z,57.10
2019-04-05T05:50:53.362Z,57.97
2019-04-05T05:53:26.742Z,53.30
2019-04-05T05:56:00.065Z,65.80
2019-04-05T05:58:33.482Z,59.80
2019-04-05T06:01:06.883Z,55.80
2019-04-05T06:03:40.269Z,57.77
2019-04-05T06:06:13.658Z,62.27
2019-04-05T06:08:47.151Z,72.17
2019-04-05T06:11:20.500Z,58.07
2019-04-05T06:13:53.874Z,62.20
2019-04-05T06:16:27.277Z,59.80
2019-04-05T06:19:00.751Z,79.03
2019-04-05T06:21:34.074Z,53.30
2019-04-05T06:24:07.445Z,50.00
2019-04-05T06:26:40.784Z,60.27
2019-04-05T06:29:14.244Z,56.03
2019-04-05T06:31:47.592Z,54.80
2019-04-05T06:34:21.013Z,60.57
2019-04-05T06:36:54.440Z,57.47
2019-04-05T06:39:27.803Z,55.93
2019-04-05T06:42:01.251Z,55.40
2019-04-05T06:44:34.697Z,62.17
2019-04-05T06:47:08.020Z,58.20
2019-04-05T06:49:41.427Z,55.37
2019-04-05T06:52:14.787Z,55.83
2019-04-05T06:54:48.210Z,57.23
2019-04-05T06:57:21.649Z,53.77
2019-04-05T06:59:55.002Z,52.20
2019-04-05T07:02:28.396Z,52.40
2019-04-05T07:05:01.772Z,58.23
2019-04-05T07:07:35.108Z,57.13
2019-04-05T07:10:08.693Z,55.27
2019-04-05T07:12:42.192Z,56.87
2019-04-05T07:15:15.689Z,56.17
2019-04-05T07:17:49.123Z,51.17
2019-04-05T07:20:23.866Z,51.57
2019-04-05T07:22:57.440Z,65.00
2019-04-05T07:25:30.918Z,74.63
2019-04-05T07:28:04.310Z,54.17
2019-04-05T07:30:37.677Z,58.13
2019-04-05T07:33:11.001Z,61.80
2019-04-05T07:35:44.368Z,61.70
2019-04-05T07:38:17.755Z,59.33
2019-04-05T07:40:51.227Z,63.30
2019-04-05T07:43:24.595Z,70.37
2019-04-05T07:45:57.929Z,68.83
2019-04-05T07:48:43.825Z,71.17
2019-04-05T07:51:06.451Z,61.87
2019-04-05T07:53:39.889Z,57.00
2019-04-05T07:56:13.282Z,63.57
2019-04-05T07:58:46.719Z,54.03
2019-04-05T08:01:20.136Z,60.43
2019-04-05T08:03:53.563Z,69.07
2019-04-05T08:06:27.088Z,63.70
2019-04-05T08:09:08.989Z,82.50
2019-04-05T08:11:43.890Z,65.27
2019-04-05T08:14:18.163Z,66.03
2019-04-05T08:16:51.778Z,61.80
2019-04-05T08:19:25.234Z,69.50
2019-04-05T08:21:58.601Z,62.97
2019-04-05T08:24:32.274Z,67.30
2019-04-05T08:27:05.667Z,61.50
2019-04-05T08:29:39.088Z,64.83
2019-04-05T08:32:14.838Z,68.30
2019-04-05T08:34:47.571Z,68.83
2019-04-05T08:37:21.027Z,68.27
2019-04-05T08:39:54.448Z,68.70
2019-04-05T08:42:27.836Z,70.30
2019-04-05T08:45:01.232Z,64.83
2019-04-05T08:47:34.598Z,65.53
2019-04-05T08:50:08.208Z,63.53
2019-04-05T08:52:41.522Z,67.17
2019-04-05T08:55:14.965Z,69.50
2019-04-05T08:57:48.307Z,73.87
2019-04-05T09:00:21.761Z,72.70
2019-04-05T09:02:55.305Z,66.00
2019-04-05T09:05:28.887Z,68.17
2019-04-05T09:08:02.281Z,67.63
2019-04-05T09:10:35.811Z,68.93
2019-04-05T09:13:09.224Z,74.77
2019-04-05T09:15:42.643Z,63.30
2019-04-05T09:18:15.968Z,67.57
2019-04-05T09:20:49.389Z,70.27
2019-04-05T09:23:22.731Z,64.00
2019-04-05T09:25:56.169Z,64.37
2019-04-05T09:28:29.495Z,72.47
2019-04-05T09:31:02.928Z,66.57
2019-04-05T09:33:36.248Z,74.93
2019-04-05T09:36:09.714Z,68.03
2019-04-05T09:38:43.108Z,69.60
2019-04-05T09:41:16.463Z,75.80
2019-04-05T09:43:49.823Z,70.23
2019-04-05T09:46:23.187Z,72.13
2019-04-05T09:48:56.608Z,73.47
2019-04-05T09:51:29.992Z,79.67
2019-04-05T09:54:03.467Z,80.97
2019-04-05T09:56:36.876Z,73.67
2019-04-05T09:59:10.299Z,74.00
2019-04-05T10:01:43.834Z,70.30
2019-04-05T10:04:17.265Z,67.63
2019-04-05T10:06:50.713Z,68.27
2019-04-05T10:09:24.113Z,70.67
2019-04-05T10:11:57.566Z,69.77
2019-04-05T10:14:30.981Z,75.60
2019-04-05T10:17:04.501Z,65.63
2019-04-05T10:19:49.192Z,69.53
2019-04-05T10:22:12.945Z,68.53
2019-04-05T10:24:46.276Z,67.50
2019-04-05T10:27:19.629Z,72.70
2019-04-05T10:29:53.071Z,74.07
2019-04-05T10:32:26.405Z,66.63
2019-04-05T10:34:59.826Z,70.77
2019-04-05T10:37:33.247Z,71.07
2019-04-05T10:40:07.202Z,72.87
2019-04-05T10:42:40.568Z,67.13
2019-04-05T10:45:14.398Z,66.77
2019-04-05T10:47:47.877Z,64.57
2019-04-05T10:50:21.382Z,67.37
2019-04-05T10:52:54.697Z,67.77
2019-04-05T10:55:28.102Z,67.67
2019-04-05T10:58:01.508Z,63.03
2019-04-05T11:00:34.858Z,63.73
2019-04-05T11:03:08.193Z,58.97
2019-04-05T11:05:41.547Z,60.80
2019-04-05T11:08:14.914Z,67.63
2019-04-05T11:10:48.229Z,65.20
2019-04-05T11:13:21.649Z,67.00
2019-04-05T11:15:55.069Z,73.67
2019-04-05T11:18:28.389Z,65.90
2019-04-05T11:21:01.758Z,61.53
2019-04-05T11:23:35.084Z,61.43
2019-04-05T11:26:08.458Z,65.80
2019-04-05T11:28:41.799Z,64.67
2019-04-05T11:31:15.303Z,68.03
2019-04-05T11:33:48.702Z,70.80
2019-04-05T11:36:22.161Z,71.92
2019-04-05T11:38:55.547Z,81.42
2019-04-05T11:41:29.105Z,69.40
2019-04-05T11:44:03.132Z,70.25
2019-04-05T11:46:37.247Z,80.40
2019-04-05T11:49:10.709Z,64.87
2019-04-05T11:51:44.200Z,65.93
2019-04-05T11:54:18.521Z,69.27
2019-04-05T11:56:52.029Z,75.23
2019-04-05T11:59:25.378Z,79.93
2019-04-05T12:02:03.119Z,72.47
2019-04-05T12:04:36.811Z,68.73
2019-04-05T12:07:10.248Z,73.70
2019-04-05T12:09:43.568Z,70.57
2019-04-05T12:12:17.042Z,77.80
2019-04-05T12:14:50.360Z,72.43
2019-04-05T12:17:23.844Z,70.20
2019-04-05T12:19:57.236Z,70.13
2019-04-05T12:22:34.514Z,75.08
2019-04-05T12:25:07.785Z,73.05
2019-04-05T12:27:41.125Z,70.00
2019-04-05T12:30:19.521Z,69.67
2019-04-05T12:32:52.870Z,68.83
2019-04-05T12:35:26.203Z,68.05
2019-04-05T12:37:59.639Z,76.15
2019-04-05T12:40:33.067Z,72.03
2019-04-05T12:43:06.495Z,73.03
2019-04-05T12:45:39.892Z,72.37
2019-04-05T12:48:13.690Z,74.85
2019-04-05T12:51:00.326Z,81.50
2019-04-05T12:53:24.654Z,76.13
2019-04-05T12:55:58.873Z,70.57
2019-04-05T12:58:32.833Z,69.27
2019-04-05T13:01:08.382Z,74.87
2019-04-05T13:03:41.634Z,73.43
2019-04-05T13:06:15.027Z,67.80
2019-04-05T13:08:48.396Z,65.87
2019-04-05T13:11:25.930Z,68.57
2019-04-05T13:13:57.034Z,70.77
2019-04-05T13:16:30.405Z,66.90
2019-04-05T13:19:03.806Z,75.07
2019-04-05T13:21:37.130Z,76.50
2019-04-05T13:24:12.027Z,74.20
2019-04-05T13:26:45.459Z,78.47
2019-04-05T13:29:19.655Z,75.53
2019-04-05T13:31:53.634Z,77.90
2019-04-05T13:34:27.007Z,73.20
2019-04-05T13:37:01.400Z,66.45
2019-04-05T13:39:35.388Z,73.87
2019-04-05T13:42:08.808Z,73.27
2019-04-05T13:44:42.237Z,70.32
2019-04-05T13:47:15.612Z,67.13
2019-04-05T13:49:48.977Z,73.90
2019-04-05T13:52:22.374Z,81.37
2019-04-05T13:54:55.736Z,79.43
2019-04-05T13:57:29.179Z,74.72
2019-04-05T14:00:02.612Z,79.27
2019-04-05T14:02:36.014Z,75.42
2019-04-05T14:05:09.503Z,74.27
2019-04-05T14:07:42.857Z,66.90
2019-04-05T14:10:16.292Z,67.00
2019-04-05T14:12:49.684Z,70.32
2019-04-05T14:15:23.120Z,69.90
2019-04-05T14:17:56.470Z,75.35
2019-04-05T14:20:29.921Z,70.32
2019-04-05T14:23:03.426Z,73.13
2019-04-05T14:25:36.919Z,71.83
2019-04-05T14:28:10.257Z,70.52
2019-04-05T14:30:43.621Z,72.03
2019-04-05T14:33:17.016Z,69.07
2019-04-05T14:35:50.391Z,65.35
2019-04-05T14:38:23.822Z,62.73
2019-04-05T14:40:57.150Z,73.17
2019-04-05T14:43:30.476Z,71.20
2019-04-05T14:46:03.995Z,63.50
2019-04-05T14:48:37.323Z,67.37
2019-04-05T14:51:10.822Z,75.62
2019-04-05T14:53:44.366Z,66.35
2019-04-05T14:56:18.097Z,70.37
2019-04-05T14:58:51.568Z,69.80
2019-04-05T15:01:24.955Z,71.57
2019-04-05T15:03:58.331Z,69.40
2019-04-05T15:06:31.685Z,75.00
2019-04-05T15:09:06.506Z,80.40
2019-04-05T15:11:39.900Z,82.40
2019-04-05T15:14:13.248Z,81.20
2019-04-05T15:16:46.574Z,74.43
2019-04-05T15:19:19.946Z,82.05
2019-04-05T15:22:04.863Z,84.47
2019-04-05T15:24:28.396Z,77.80
2019-04-05T15:27:01.748Z,77.45
2019-04-05T15:29:35.135Z,78.33
2019-04-05T15:32:08.536Z,74.45
2019-04-05T15:34:42.048Z,64.17
2019-04-05T15:37:16.123Z,67.80
2019-04-05T15:39:49.828Z,66.73
2019-04-05T15:42:23.213Z,71.10
2019-04-05T15:44:56.587Z,76.60
2019-04-05T15:47:31.954Z,65.17
2019-04-05T15:50:07.324Z,71.00
2019-04-05T15:52:40.645Z,72.67
2019-04-05T15:55:14.081Z,72.80
2019-04-05T15:57:47.488Z,80.67
2019-04-05T16:00:39.028Z,66.63
2019-04-05T16:03:13.376Z,71.97
2019-04-05T16:05:46.878Z,66.93
2019-04-05T16:08:20.278Z,73.90
2019-04-05T16:10:53.644Z,72.43
2019-04-05T16:13:27.050Z,62.50
2019-04-05T16:16:00.467Z,65.23
2019-04-05T16:18:33.800Z,66.12
2019-04-05T16:21:07.149Z,66.37
2019-04-05T16:23:40.493Z,59.60
2019-04-05T16:26:13.839Z,63.07
2019-04-05T16:28:47.184Z,63.73
2019-04-05T16:31:20.611Z,61.73
2019-04-05T16:33:54.045Z,63.77
2019-04-05T16:36:27.551Z,57.87
2019-04-05T16:39:02.601Z,66.05
2019-04-05T16:41:35.953Z,62.00
2019-04-05T16:44:09.378Z,64.47
2019-04-05T16:46:42.749Z,57.27
2019-04-05T16:49:16.097Z,59.03
2019-04-05T16:51:49.484Z,59.00
2019-04-05T16:54:22.804Z,59.10
2019-04-05T16:56:56.248Z,64.27
2019-04-05T16:59:29.569Z,61.07
2019-04-05T17:02:02.937Z,52.57
2019-04-05T17:04:36.311Z,59.50
2019-04-05T17:07:09.662Z,58.60
2019-04-05T17:09:42.980Z,62.87
2019-04-05T17:12:16.349Z,61.60
2019-04-05T17:14:49.735Z,55.87
2019-04-05T17:17:23.190Z,56.00
2019-04-05T17:19:56.524Z,57.80
2019-04-05T17:22:29.971Z,58.80
2019-04-05T17:25:04.543Z,57.63
2019-04-05T17:27:37.987Z,60.65
2019-04-05T17:30:11.384Z,54.50
2019-04-05T17:32:44.775Z,57.70
2019-04-05T17:35:19.580Z,55.77
2019-04-05T17:37:52.938Z,61.90
2019-04-05T17:40:26.282Z,57.10
2019-04-05T17:42:59.718Z,64.93
2019-04-05T17:45:33.038Z,58.03
2019-04-05T17:48:06.487Z,55.43
2019-04-05T17:50:39.814Z,56.47
2019-04-05T17:53:13.607Z,59.10
2019-04-05T17:55:47.169Z,56.63
2019-04-05T17:58:20.605Z,50.67
2019-04-05T18:00:54.137Z,55.27
2019-04-05T18:03:27.602Z,50.37
2019-04-05T18:06:00.961Z,53.73
2019-04-05T18:08:34.284Z,60.70
2019-04-05T18:11:07.632Z,53.90
2019-04-05T18:13:40.966Z,53.87
2019-04-05T18:16:14.415Z,59.40
2019-04-05T18:18:47.755Z,56.07
2019-04-05T18:21:21.240Z,60.67
2019-04-05T18:23:54.561Z,58.47
2019-04-05T18:26:27.926Z,53.87
2019-04-05T18:29:01.345Z,56.27
2019-04-05T18:31:34.936Z,56.70
2019-04-05T18:34:08.384Z,54.00
2019-04-05T18:36:41.781Z,48.27
2019-04-05T18:39:15.360Z,57.30
2019-04-05T18:41:48.711Z,57.23
2019-04-05T18:44:22.039Z,61.07
2019-04-05T18:46:55.448Z,63.00
2019-04-05T18:49:28.841Z,52.87
2019-04-05T18:52:02.201Z,59.10
2019-04-05T18:54:35.523Z,62.47
2019-04-05T18:57:08.892Z,53.80
2019-04-05T18:59:42.203Z,61.13
2019-04-05T19:02:15.551Z,59.73
2019-04-05T19:04:49.017Z,52.30
2019-04-05T19:07:22.521Z,60.77
2019-04-05T19:09:55.891Z,60.00
2019-04-05T19:12:29.311Z,60.43
2019-04-05T19:15:02.856Z,54.63
2019-04-05T19:17:36.187Z,52.20
2019-04-05T19:20:09.963Z,53.87
2019-04-05T19:22:43.413Z,56.73
2019-04-05T19:25:16.887Z,58.83
2019-04-05T19:27:50.259Z,63.13
2019-04-05T19:51:02.688Z,56.77
2019-04-05T19:53:36.134Z,56.43
2019-04-05T19:56:09.536Z,66.10
2019-04-05T19:58:42.973Z,64.63
2019-04-05T20:01:16.778Z,56.37
2019-04-05T20:03:50.179Z,53.93
2019-04-05T20:06:23.573Z,54.47
2019-04-05T20:08:56.941Z,57.03
2019-04-05T20:11:30.290Z,60.40
2019-04-05T20:14:03.716Z,69.90
2019-04-05T20:16:37.124Z,63.43
2019-04-05T20:19:10.490Z,59.90
2019-04-05T20:21:43.853Z,52.10
2019-04-05T20:24:17.219Z,62.70
2019-04-05T20:26:50.773Z,62.60
2019-04-05T20:29:24.239Z,58.07
2019-04-05T20:31:57.659Z,75.40
2019-04-05T20:34:31.044Z,59.83
2019-04-05T20:37:04.439Z,61.27
2019-04-05T20:39:37.920Z,63.60
2019-04-05T20:42:11.270Z,78.53
2019-04-05T20:44:44.740Z,76.40
2019-04-05T20:47:18.166Z,65.00
2019-04-05T20:49:51.585Z,70.83
2019-04-05T20:52:24.978Z,67.17
2019-04-05T20:54:58.340Z,69.90
2019-04-05T20:57:31.691Z,73.43
2019-04-05T21:00:07.478Z,67.20
2019-04-05T21:02:40.995Z,92.57
2019-04-05T21:05:24.585Z,65.37
2019-04-05T21:07:49.477Z,69.77
2019-04-05T21:10:22.876Z,68.57
2019-04-05T21:12:56.267Z,75.13
2019-04-05T21:15:29.643Z,71.90
2019-04-05T21:18:02.981Z,68.93
2019-04-05T21:20:36.406Z,77.80
2019-04-05T21:23:09.867Z,76.57
2019-04-05T21:25:43.341Z,66.17
2019-04-05T21:28:16.677Z,68.87
2019-04-05T21:30:50.122Z,69.80
2019-04-05T21:33:23.451Z,69.43
2019-04-05T21:35:56.806Z,72.73
2019-04-05T21:38:30.319Z,66.07
2019-04-05T21:41:03.714Z,67.00
2019-04-05T21:43:37.130Z,69.07
2019-04-05T21:46:10.847Z,83.33
2019-04-05T21:48:44.304Z,70.37
2019-04-05T21:51:17.755Z,71.87
2019-04-05T21:53:51.212Z,65.40
2019-04-05T21:56:24.714Z,74.13
2019-04-05T21:58:58.102Z,68.53
2019-04-05T22:01:31.536Z,72.37
2019-04-05T22:04:05.095Z,79.20
2019-04-05T22:06:38.533Z,70.10
2019-04-05T22:09:12.236Z,77.83
2019-04-05T22:11:45.608Z,79.27
2019-04-05T22:14:19.075Z,65.20
2019-04-05T22:16:52.527Z,72.33
2019-04-05T22:19:25.983Z,64.93
2019-04-05T22:21:59.317Z,72.67
2019-04-05T22:24:32.765Z,67.10
2019-04-05T22:27:06.134Z,71.60
2019-04-05T22:29:39.680Z,77.23
2019-04-05T22:32:13.051Z,72.23
2019-04-05T22:34:46.587Z,74.33
2019-04-05T22:37:20.095Z,64.40
2019-04-05T22:39:54.221Z,68.73
2019-04-05T22:42:27.557Z,73.90
2019-04-05T22:45:00.909Z,76.17
2019-04-05T22:47:34.511Z,66.50
2019-04-05T22:50:08.200Z,74.67
2019-04-05T22:52:41.587Z,78.63
2019-04-05T22:55:14.946Z,72.50
2019-04-05T22:57:48.268Z,78.60
2019-04-05T23:00:21.691Z,82.67
2019-04-05T23:02:56.042Z,82.47
2019-04-05T23:05:29.592Z,65.00
2019-04-05T23:08:03.102Z,62.53
2019-04-05T23:10:36.553Z,72.37
2019-04-05T23:13:10.349Z,63.23
2019-04-05T23:15:43.922Z,62.80
2019-04-05T23:18:18.070Z,81.60
2019-04-05T23:20:51.812Z,124.60
2019-04-05T23:23:25.543Z,78.93
2019-04-05T23:25:59.425Z,64.07
2019-04-05T23:28:33.117Z,71.27
2019-04-05T23:31:06.840Z,68.80
2019-04-05T23:33:40.461Z,87.43
2019-04-05T23:36:13.889Z,89.63
2019-04-05T23:38:47.495Z,82.33
2019-04-05T23:41:21.005Z,69.20
2019-04-05T23:43:54.919Z,72.70
2019-04-05T23:46:28.577Z,86.97
2019-04-05T23:49:02.128Z,77.73
2019-04-05T23:51:35.778Z,66.93
2019-04-05T23:54:11.154Z,72.40
2019-04-05T23:56:44.839Z,67.17
2019-04-05T23:59:18.357Z,74.93
